sensor_id;sensor_type;location;lat;lon;timestamp;P1;durP1;ratioP1;P2;durP2;ratioP2
56239;SDS011;42154;51.992;5.896;2022-10-20T00:00:36;8.13;;;5.45;;
56239;SDS011;42154;51.992;5.896;2022-10-20T00:03:02;9.77;;;5.60;;
56239;SDS011;42154;51.992;5.896;2022-10-20T00:05:28;11.88;;;5.82;;
56239;SDS011;42154;51.992;5.896;2022-10-20T00:07:53;9.52;;;6.57;;
56239;SDS011;42154;51.992;5.896;2022-10-20T00:10:19;8.13;;;5.18;;
56239;SDS011;42154;51.992;5.896;2022-10-20T00:12:45;9.38;;;6.35;;
56239;SDS011;42154;51.992;5.896;2022-10-20T00:15:10;11.05;;;5.85;;
56239;SDS011;42154;51.992;5.896;2022-10-20T00:17:36;8.00;;;6.07;;
56239;SDS011;42154;51.992;5.896;2022-10-20T00:20:02;12.82;;;6.57;;
56239;SDS011;42154;51.992;5.896;2022-10-20T00:22:30;7.85;;;6.10;;
56239;SDS011;42154;51.992;5.896;2022-10-20T00:24:56;8.35;;;5.80;;
56239;SDS011;42154;51.992;5.896;2022-10-20T00:27:21;9.02;;;6.10;;
56239;SDS011;42154;51.992;5.896;2022-10-20T00:29:47;10.02;;;7.50;;
56239;SDS011;42154;51.992;5.896;2022-10-20T00:32:13;9.05;;;6.53;;
56239;SDS011;42154;51.992;5.896;2022-10-20T00:34:39;9.20;;;6.80;;
56239;SDS011;42154;51.992;5.896;2022-10-20T00:37:05;8.20;;;6.07;;
56239;SDS011;42154;51.992;5.896;2022-10-20T00:39:31;8.75;;;5.90;;
56239;SDS011;42154;51.992;5.896;2022-10-20T00:41:56;8.63;;;6.55;;
56239;SDS011;42154;51.992;5.896;2022-10-20T00:47:17;11.45;;;7.38;;
56239;SDS011;42154;51.992;5.896;2022-10-20T00:49:46;13.30;;;6.97;;
56239;SDS011;42154;51.992;5.896;2022-10-20T00:52:14;9.10;;;6.72;;
56239;SDS011;42154;51.992;5.896;2022-10-20T00:54:44;9.93;;;6.30;;
56239;SDS011;42154;51.992;5.896;2022-10-20T00:57:10;9.90;;;6.88;;
56239;SDS011;42154;51.992;5.896;2022-10-20T00:59:36;9.75;;;6.30;;
56239;SDS011;42154;51.992;5.896;2022-10-20T01:02:04;7.85;;;5.80;;
56239;SDS011;42154;51.992;5.896;2022-10-20T01:04:33;10.82;;;7.40;;
56239;SDS011;42154;51.992;5.896;2022-10-20T01:07:02;10.57;;;6.30;;
56239;SDS011;42154;51.992;5.896;2022-10-20T01:09:28;12.35;;;7.35;;
56239;SDS011;42154;51.992;5.896;2022-10-20T01:25:49;7.32;;;6.50;;
56239;SDS011;42154;51.992;5.896;2022-10-20T01:28:33;10.00;;;6.47;;
56239;SDS011;42154;51.992;5.896;2022-10-20T01:31:11;9.63;;;6.88;;
56239;SDS011;42154;51.992;5.896;2022-10-20T01:33:53;9.07;;;6.85;;
56239;SDS011;42154;51.992;5.896;2022-10-20T01:36:35;9.70;;;6.45;;
56239;SDS011;42154;51.992;5.896;2022-10-20T01:39:11;10.80;;;7.13;;
56239;SDS011;42154;51.992;5.896;2022-10-20T01:41:54;11.88;;;7.30;;
56239;SDS011;42154;51.992;5.896;2022-10-20T01:44:25;9.05;;;6.68;;
56239;SDS011;42154;51.992;5.896;2022-10-20T01:46:53;7.88;;;6.82;;
56239;SDS011;42154;51.992;5.896;2022-10-20T01:49:21;12.18;;;6.65;;
56239;SDS011;42154;51.992;5.896;2022-10-20T01:51:47;12.35;;;7.63;;
56239;SDS011;42154;51.992;5.896;2022-10-20T01:54:20;10.80;;;7.30;;
56239;SDS011;42154;51.992;5.896;2022-10-20T01:57:03;10.63;;;7.18;;
56239;SDS011;42154;51.992;5.896;2022-10-20T02:11:11;10.63;;;6.80;;
56239;SDS011;42154;51.992;5.896;2022-10-20T02:13:45;11.30;;;8.00;;
56239;SDS011;42154;51.992;5.896;2022-10-20T02:16:15;11.75;;;8.07;;
56239;SDS011;42154;51.992;5.896;2022-10-20T02:18:48;12.00;;;7.22;;
56239;SDS011;42154;51.992;5.896;2022-10-20T02:21:14;8.95;;;6.65;;
56239;SDS011;42154;51.992;5.896;2022-10-20T02:23:41;8.73;;;6.30;;
56239;SDS011;42154;51.992;5.896;2022-10-20T02:26:12;8.25;;;7.00;;
56239;SDS011;42154;51.992;5.896;2022-10-20T02:28:39;8.18;;;6.93;;
56239;SDS011;42154;51.992;5.896;2022-10-20T02:31:10;9.90;;;7.00;;
56239;SDS011;42154;51.992;5.896;2022-10-20T02:33:36;11.20;;;6.60;;
56239;SDS011;42154;51.992;5.896;2022-10-20T02:36:04;11.02;;;7.40;;
56239;SDS011;42154;51.992;5.896;2022-10-20T02:38:30;8.15;;;5.90;;
56239;SDS011;42154;51.992;5.896;2022-10-20T02:40:56;8.20;;;7.18;;
56239;SDS011;42154;51.992;5.896;2022-10-20T02:43:22;10.25;;;7.22;;
56239;SDS011;42154;51.992;5.896;2022-10-20T02:45:47;9.57;;;6.95;;
56239;SDS011;42154;51.992;5.896;2022-10-20T02:48:13;11.68;;;7.47;;
56239;SDS011;42154;51.992;5.896;2022-10-20T02:50:39;11.25;;;6.95;;
56239;SDS011;42154;51.992;5.896;2022-10-20T02:53:04;8.02;;;7.15;;
56239;SDS011;42154;51.992;5.896;2022-10-20T02:55:30;8.95;;;6.68;;
56239;SDS011;42154;51.992;5.896;2022-10-20T02:57:56;12.77;;;8.02;;
56239;SDS011;42154;51.992;5.896;2022-10-20T03:00:22;8.60;;;6.40;;
56239;SDS011;42154;51.992;5.896;2022-10-20T03:02:48;12.90;;;7.40;;
56239;SDS011;42154;51.992;5.896;2022-10-20T03:05:14;9.68;;;6.88;;
56239;SDS011;42154;51.992;5.896;2022-10-20T03:07:39;10.88;;;6.93;;
56239;SDS011;42154;51.992;5.896;2022-10-20T03:10:05;12.30;;;7.25;;
56239;SDS011;42154;51.992;5.896;2022-10-20T03:12:33;10.80;;;7.35;;
56239;SDS011;42154;51.992;5.896;2022-10-20T03:14:58;12.38;;;8.60;;
56239;SDS011;42154;51.992;5.896;2022-10-20T03:17:24;13.98;;;8.15;;
56239;SDS011;42154;51.992;5.896;2022-10-20T03:19:50;9.70;;;6.95;;
56239;SDS011;42154;51.992;5.896;2022-10-20T03:22:15;10.70;;;6.80;;
56239;SDS011;42154;51.992;5.896;2022-10-20T03:24:41;9.57;;;7.03;;
56239;SDS011;42154;51.992;5.896;2022-10-20T03:27:07;10.23;;;7.43;;
56239;SDS011;42154;51.992;5.896;2022-10-20T03:29:33;11.38;;;7.30;;
56239;SDS011;42154;51.992;5.896;2022-10-20T03:31:58;9.05;;;6.63;;
56239;SDS011;42154;51.992;5.896;2022-10-20T03:34:24;12.10;;;7.68;;
56239;SDS011;42154;51.992;5.896;2022-10-20T03:36:50;11.43;;;7.45;;
56239;SDS011;42154;51.992;5.896;2022-10-20T03:39:15;10.40;;;7.07;;
56239;SDS011;42154;51.992;5.896;2022-10-20T03:41:41;11.13;;;7.65;;
56239;SDS011;42154;51.992;5.896;2022-10-20T03:44:08;9.18;;;6.90;;
56239;SDS011;42154;51.992;5.896;2022-10-20T03:46:35;11.35;;;7.32;;
56239;SDS011;42154;51.992;5.896;2022-10-20T03:49:00;11.40;;;6.97;;
56239;SDS011;42154;51.992;5.896;2022-10-20T03:51:26;9.75;;;7.95;;
56239;SDS011;42154;51.992;5.896;2022-10-20T03:53:52;10.52;;;7.28;;
56239;SDS011;42154;51.992;5.896;2022-10-20T03:56:18;12.10;;;8.50;;
56239;SDS011;42154;51.992;5.896;2022-10-20T03:58:45;15.95;;;8.63;;
56239;SDS011;42154;51.992;5.896;2022-10-20T04:01:15;11.65;;;7.38;;
56239;SDS011;42154;51.992;5.896;2022-10-20T04:03:42;11.23;;;7.55;;
56239;SDS011;42154;51.992;5.896;2022-10-20T04:06:09;12.30;;;7.40;;
56239;SDS011;42154;51.992;5.896;2022-10-20T04:08:36;9.10;;;6.88;;
56239;SDS011;42154;51.992;5.896;2022-10-20T04:11:02;11.10;;;7.97;;
56239;SDS011;42154;51.992;5.896;2022-10-20T04:13:28;11.93;;;8.48;;
56239;SDS011;42154;51.992;5.896;2022-10-20T04:15:53;13.70;;;7.30;;
56239;SDS011;42154;51.992;5.896;2022-10-20T04:18:19;10.43;;;7.20;;
56239;SDS011;42154;51.992;5.896;2022-10-20T04:20:46;15.70;;;8.40;;
56239;SDS011;42154;51.992;5.896;2022-10-20T04:23:12;9.43;;;7.28;;
56239;SDS011;42154;51.992;5.896;2022-10-20T04:25:39;10.38;;;7.10;;
56239;SDS011;42154;51.992;5.896;2022-10-20T04:28:12;9.63;;;7.40;;
56239;SDS011;42154;51.992;5.896;2022-10-20T04:30:38;11.98;;;8.95;;
56239;SDS011;42154;51.992;5.896;2022-10-20T04:33:04;12.73;;;8.23;;
56239;SDS011;42154;51.992;5.896;2022-10-20T04:35:30;11.20;;;8.00;;
56239;SDS011;42154;51.992;5.896;2022-10-20T04:37:56;10.85;;;8.13;;
56239;SDS011;42154;51.992;5.896;2022-10-20T04:40:21;10.98;;;7.40;;
56239;SDS011;42154;51.992;5.896;2022-10-20T04:42:47;15.75;;;9.05;;
56239;SDS011;42154;51.992;5.896;2022-10-20T04:45:13;11.35;;;7.72;;
56239;SDS011;42154;51.992;5.896;2022-10-20T04:47:38;10.48;;;7.65;;
56239;SDS011;42154;51.992;5.896;2022-10-20T04:50:04;10.32;;;8.43;;
56239;SDS011;42154;51.992;5.896;2022-10-20T04:52:30;13.27;;;8.35;;
56239;SDS011;42154;51.992;5.896;2022-10-20T04:54:56;10.05;;;8.07;;
56239;SDS011;42154;51.992;5.896;2022-10-20T04:57:22;10.18;;;8.40;;
56239;SDS011;42154;51.992;5.896;2022-10-20T04:59:48;12.70;;;8.35;;
56239;SDS011;42154;51.992;5.896;2022-10-20T05:02:13;10.63;;;7.85;;
56239;SDS011;42154;51.992;5.896;2022-10-20T05:04:39;13.60;;;8.63;;
56239;SDS011;42154;51.992;5.896;2022-10-20T05:07:05;11.68;;;7.72;;
56239;SDS011;42154;51.992;5.896;2022-10-20T05:09:31;9.90;;;7.00;;
56239;SDS011;42154;51.992;5.896;2022-10-20T05:11:57;11.82;;;8.38;;
56239;SDS011;42154;51.992;5.896;2022-10-20T05:14:23;12.90;;;8.90;;
56239;SDS011;42154;51.992;5.896;2022-10-20T05:16:49;14.13;;;8.20;;
56239;SDS011;42154;51.992;5.896;2022-10-20T05:19:16;12.32;;;8.80;;
56239;SDS011;42154;51.992;5.896;2022-10-20T05:21:42;13.20;;;8.55;;
56239;SDS011;42154;51.992;5.896;2022-10-20T05:24:10;11.55;;;8.73;;
56239;SDS011;42154;51.992;5.896;2022-10-20T05:26:38;11.15;;;8.25;;
56239;SDS011;42154;51.992;5.896;2022-10-20T05:29:05;11.75;;;8.55;;
56239;SDS011;42154;51.992;5.896;2022-10-20T05:31:35;12.80;;;8.90;;
56239;SDS011;42154;51.992;5.896;2022-10-20T05:34:05;10.63;;;8.35;;
56239;SDS011;42154;51.992;5.896;2022-10-20T05:36:31;12.40;;;8.50;;
56239;SDS011;42154;51.992;5.896;2022-10-20T05:38:57;10.93;;;8.82;;
56239;SDS011;42154;51.992;5.896;2022-10-20T05:41:27;13.82;;;9.93;;
56239;SDS011;42154;51.992;5.896;2022-10-20T05:46:21;15.45;;;9.25;;
56239;SDS011;42154;51.992;5.896;2022-10-20T05:48:51;11.00;;;8.50;;
56239;SDS011;42154;51.992;5.896;2022-10-20T05:51:22;15.73;;;10.73;;
56239;SDS011;42154;51.992;5.896;2022-10-20T05:53:50;14.05;;;9.45;;
56239;SDS011;42154;51.992;5.896;2022-10-20T05:56:17;11.10;;;8.60;;
56239;SDS011;42154;51.992;5.896;2022-10-20T05:58:44;13.00;;;9.52;;
56239;SDS011;42154;51.992;5.896;2022-10-20T06:04:01;13.65;;;8.80;;
56239;SDS011;42154;51.992;5.896;2022-10-20T06:06:28;11.73;;;8.68;;
56239;SDS011;42154;51.992;5.896;2022-10-20T06:08:55;11.27;;;8.60;;
56239;SDS011;42154;51.992;5.896;2022-10-20T06:11:23;11.70;;;9.13;;
56239;SDS011;42154;51.992;5.896;2022-10-20T06:13:49;12.88;;;9.43;;
56239;SDS011;42154;51.992;5.896;2022-10-20T06:16:18;12.75;;;9.68;;
56239;SDS011;42154;51.992;5.896;2022-10-20T06:18:46;16.13;;;10.20;;
56239;SDS011;42154;51.992;5.896;2022-10-20T06:21:16;12.95;;;9.82;;
56239;SDS011;42154;51.992;5.896;2022-10-20T06:23:43;17.55;;;10.70;;
56239;SDS011;42154;51.992;5.896;2022-10-20T06:26:10;13.60;;;9.88;;
56239;SDS011;42154;51.992;5.896;2022-10-20T06:28:48;10.77;;;9.60;;
56239;SDS011;42154;51.992;5.896;2022-10-20T06:31:24;13.57;;;9.00;;
56239;SDS011;42154;51.992;5.896;2022-10-20T06:33:51;11.80;;;8.98;;
56239;SDS011;42154;51.992;5.896;2022-10-20T06:36:17;9.95;;;7.72;;
56239;SDS011;42154;51.992;5.896;2022-10-20T06:38:44;10.48;;;9.07;;
56239;SDS011;42154;51.992;5.896;2022-10-20T06:41:11;12.35;;;9.02;;
56239;SDS011;42154;51.992;5.896;2022-10-20T06:43:41;16.80;;;9.70;;
56239;SDS011;42154;51.992;5.896;2022-10-20T07:21:20;13.80;;;9.25;;
56239;SDS011;42154;51.992;5.896;2022-10-20T07:23:47;15.80;;;10.60;;
56239;SDS011;42154;51.992;5.896;2022-10-20T07:26:24;13.50;;;10.38;;
56239;SDS011;42154;51.992;5.896;2022-10-20T07:28:52;16.65;;;10.30;;
56239;SDS011;42154;51.992;5.896;2022-10-20T07:31:20;11.57;;;8.73;;
56239;SDS011;42154;51.992;5.896;2022-10-20T07:33:48;14.40;;;10.23;;
56239;SDS011;42154;51.992;5.896;2022-10-20T07:38:42;15.80;;;10.35;;
56239;SDS011;42154;51.992;5.896;2022-10-20T07:41:08;14.00;;;10.13;;
56239;SDS011;42154;51.992;5.896;2022-10-20T07:43:35;12.55;;;9.90;;
56239;SDS011;42154;51.992;5.896;2022-10-20T07:46:01;13.95;;;10.00;;
56239;SDS011;42154;51.992;5.896;2022-10-20T07:48:27;15.52;;;11.35;;
56239;SDS011;42154;51.992;5.896;2022-10-20T07:50:53;17.25;;;9.45;;
56239;SDS011;42154;51.992;5.896;2022-10-20T07:53:19;15.52;;;11.18;;
56239;SDS011;42154;51.992;5.896;2022-10-20T07:55:45;15.57;;;10.45;;
56239;SDS011;42154;51.992;5.896;2022-10-20T07:58:11;17.27;;;10.90;;
56239;SDS011;42154;51.992;5.896;2022-10-20T08:00:37;16.98;;;10.82;;
56239;SDS011;42154;51.992;5.896;2022-10-20T08:03:02;12.13;;;8.85;;
56239;SDS011;42154;51.992;5.896;2022-10-20T08:05:28;15.35;;;11.05;;
56239;SDS011;42154;51.992;5.896;2022-10-20T08:07:54;14.85;;;11.20;;
56239;SDS011;42154;51.992;5.896;2022-10-20T08:10:20;14.05;;;9.20;;
56239;SDS011;42154;51.992;5.896;2022-10-20T08:12:46;14.50;;;9.80;;
56239;SDS011;42154;51.992;5.896;2022-10-20T08:15:12;15.68;;;10.52;;
56239;SDS011;42154;51.992;5.896;2022-10-20T08:17:40;15.40;;;11.80;;
56239;SDS011;42154;51.992;5.896;2022-10-20T08:20:06;13.32;;;9.18;;
56239;SDS011;42154;51.992;5.896;2022-10-20T08:22:32;14.15;;;9.73;;
56239;SDS011;42154;51.992;5.896;2022-10-20T08:24:57;12.32;;;8.48;;
56239;SDS011;42154;51.992;5.896;2022-10-20T08:27:23;13.27;;;10.25;;
56239;SDS011;42154;51.992;5.896;2022-10-20T08:45:28;13.57;;;10.38;;
56239;SDS011;42154;51.992;5.896;2022-10-20T08:47:56;13.52;;;9.73;;
56239;SDS011;42154;51.992;5.896;2022-10-20T08:50:23;15.75;;;10.93;;
56239;SDS011;42154;51.992;5.896;2022-10-20T08:52:53;13.95;;;10.75;;
56239;SDS011;42154;51.992;5.896;2022-10-20T08:55:27;15.90;;;11.70;;
56239;SDS011;42154;51.992;5.896;2022-10-20T08:58:14;14.05;;;9.98;;
56239;SDS011;42154;51.992;5.896;2022-10-20T09:00:43;14.85;;;9.70;;
56239;SDS011;42154;51.992;5.896;2022-10-20T09:03:20;18.38;;;12.50;;
56239;SDS011;42154;51.992;5.896;2022-10-20T09:05:49;17.08;;;11.25;;
56239;SDS011;42154;51.992;5.896;2022-10-20T09:08:19;16.15;;;11.27;;
56239;SDS011;42154;51.992;5.896;2022-10-20T09:10:48;15.18;;;11.07;;
56239;SDS011;42154;51.992;5.896;2022-10-20T09:13:26;11.38;;;9.88;;
56239;SDS011;42154;51.992;5.896;2022-10-20T09:15:58;12.70;;;9.38;;
56239;SDS011;42154;51.992;5.896;2022-10-20T09:18:30;13.43;;;9.63;;
56239;SDS011;42154;51.992;5.896;2022-10-20T09:23:40;14.35;;;9.35;;
56239;SDS011;42154;51.992;5.896;2022-10-20T09:26:12;11.82;;;9.10;;
56239;SDS011;42154;51.992;5.896;2022-10-20T09:28:40;14.75;;;10.77;;
56239;SDS011;42154;51.992;5.896;2022-10-20T09:31:19;15.57;;;10.57;;
56239;SDS011;42154;51.992;5.896;2022-10-20T09:33:56;15.82;;;9.88;;
56239;SDS011;42154;51.992;5.896;2022-10-20T09:36:21;14.27;;;10.23;;
56239;SDS011;42154;51.992;5.896;2022-10-20T09:38:53;15.65;;;11.85;;
56239;SDS011;42154;51.992;5.896;2022-10-20T09:41:19;12.60;;;9.15;;
56239;SDS011;42154;51.992;5.896;2022-10-20T09:43:51;12.23;;;9.38;;
56239;SDS011;42154;51.992;5.896;2022-10-20T09:46:20;15.50;;;10.05;;
56239;SDS011;42154;51.992;5.896;2022-10-20T09:48:48;14.07;;;10.73;;
56239;SDS011;42154;51.992;5.896;2022-10-20T09:51:25;15.98;;;11.23;;
56239;SDS011;42154;51.992;5.896;2022-10-20T09:54:02;11.23;;;9.20;;
56239;SDS011;42154;51.992;5.896;2022-10-20T09:56:40;13.48;;;9.45;;
56239;SDS011;42154;51.992;5.896;2022-10-20T09:59:16;14.55;;;11.10;;
56239;SDS011;42154;51.992;5.896;2022-10-20T10:04:44;14.90;;;8.98;;
56239;SDS011;42154;51.992;5.896;2022-10-20T10:09:50;13.13;;;9.30;;
56239;SDS011;42154;51.992;5.896;2022-10-20T10:12:23;13.00;;;9.07;;
56239;SDS011;42154;51.992;5.896;2022-10-20T10:15:17;10.40;;;8.40;;
56239;SDS011;42154;51.992;5.896;2022-10-20T10:17:51;16.77;;;11.33;;
56239;SDS011;42154;51.992;5.896;2022-10-20T10:22:43;12.65;;;9.10;;
56239;SDS011;42154;51.992;5.896;2022-10-20T10:25:24;13.50;;;9.57;;
56239;SDS011;42154;51.992;5.896;2022-10-20T10:28:05;15.82;;;10.05;;
56239;SDS011;42154;51.992;5.896;2022-10-20T10:30:44;12.70;;;9.02;;
56239;SDS011;42154;51.992;5.896;2022-10-20T10:33:23;16.95;;;10.48;;
56239;SDS011;42154;51.992;5.896;2022-10-20T10:35:51;15.60;;;10.73;;
56239;SDS011;42154;51.992;5.896;2022-10-20T10:38:17;14.18;;;10.95;;
56239;SDS011;42154;51.992;5.896;2022-10-20T10:40:45;14.07;;;9.35;;
56239;SDS011;42154;51.992;5.896;2022-10-20T10:55:53;12.23;;;9.05;;
56239;SDS011;42154;51.992;5.896;2022-10-20T11:01:04;10.32;;;7.88;;
56239;SDS011;42154;51.992;5.896;2022-10-20T11:06:32;11.73;;;7.85;;
56239;SDS011;42154;51.992;5.896;2022-10-20T11:09:27;17.70;;;9.77;;
56239;SDS011;42154;51.992;5.896;2022-10-20T11:12:06;14.07;;;10.65;;
56239;SDS011;42154;51.992;5.896;2022-10-20T11:15:05;13.13;;;9.80;;
56239;SDS011;42154;51.992;5.896;2022-10-20T11:25:46;14.55;;;9.80;;
56239;SDS011;42154;51.992;5.896;2022-10-20T11:28:24;12.32;;;8.73;;
56239;SDS011;42154;51.992;5.896;2022-10-20T11:31:11;10.27;;;7.82;;
56239;SDS011;42154;51.992;5.896;2022-10-20T11:36:53;10.40;;;7.78;;
56239;SDS011;42154;51.992;5.896;2022-10-20T11:42:30;11.35;;;9.35;;
56239;SDS011;42154;51.992;5.896;2022-10-20T11:44:57;10.05;;;8.15;;
56239;SDS011;42154;51.992;5.896;2022-10-20T11:47:35;14.85;;;9.48;;
56239;SDS011;42154;51.992;5.896;2022-10-20T11:50:08;11.93;;;9.50;;
56239;SDS011;42154;51.992;5.896;2022-10-20T12:00:29;10.82;;;7.47;;
56239;SDS011;42154;51.992;5.896;2022-10-20T12:11:58;15.07;;;10.93;;
56239;SDS011;42154;51.992;5.896;2022-10-20T12:17:03;11.10;;;9.02;;
56239;SDS011;42154;51.992;5.896;2022-10-20T12:19:31;12.13;;;9.73;;
56239;SDS011;42154;51.992;5.896;2022-10-20T12:21:59;15.90;;;10.70;;
56239;SDS011;42154;51.992;5.896;2022-10-20T12:24:38;16.85;;;11.00;;
56239;SDS011;42154;51.992;5.896;2022-10-20T12:37:36;13.20;;;10.32;;
56239;SDS011;42154;51.992;5.896;2022-10-20T12:45:03;16.08;;;11.77;;
56239;SDS011;42154;51.992;5.896;2022-10-20T12:47:32;13.38;;;9.80;;
56239;SDS011;42154;51.992;5.896;2022-10-20T12:50:22;15.43;;;11.38;;
56239;SDS011;42154;51.992;5.896;2022-10-20T12:55:36;22.25;;;15.05;;
56239;SDS011;42154;51.992;5.896;2022-10-20T13:16:37;16.42;;;13.30;;
56239;SDS011;42154;51.992;5.896;2022-10-20T13:19:22;19.35;;;15.07;;
56239;SDS011;42154;51.992;5.896;2022-10-20T13:21:54;15.15;;;12.82;;
56239;SDS011;42154;51.992;5.896;2022-10-20T13:24:30;19.55;;;14.95;;
56239;SDS011;42154;51.992;5.896;2022-10-20T13:27:00;17.88;;;13.43;;
56239;SDS011;42154;51.992;5.896;2022-10-20T13:29:40;17.23;;;14.65;;
56239;SDS011;42154;51.992;5.896;2022-10-20T13:40:21;20.60;;;12.57;;
56239;SDS011;42154;51.992;5.896;2022-10-20T13:45:49;16.73;;;13.85;;
56239;SDS011;42154;51.992;5.896;2022-10-20T13:51:13;14.77;;;11.85;;
56239;SDS011;42154;51.992;5.896;2022-10-20T13:53:43;21.33;;;15.73;;
56239;SDS011;42154;51.992;5.896;2022-10-20T13:58:40;18.50;;;13.98;;
56239;SDS011;42154;51.992;5.896;2022-10-20T14:01:13;14.13;;;11.60;;
56239;SDS011;42154;51.992;5.896;2022-10-20T14:03:44;21.80;;;15.95;;
56239;SDS011;42154;51.992;5.896;2022-10-20T14:08:52;16.73;;;13.35;;
56239;SDS011;42154;51.992;5.896;2022-10-20T14:11:22;21.35;;;14.77;;
56239;SDS011;42154;51.992;5.896;2022-10-20T14:13:55;23.17;;;15.45;;
56239;SDS011;42154;51.992;5.896;2022-10-20T14:16:24;20.88;;;14.95;;
56239;SDS011;42154;51.992;5.896;2022-10-20T14:19:02;20.77;;;14.30;;
56239;SDS011;42154;51.992;5.896;2022-10-20T14:21:38;16.40;;;13.38;;
56239;SDS011;42154;51.992;5.896;2022-10-20T14:24:07;13.90;;;11.48;;
56239;SDS011;42154;51.992;5.896;2022-10-20T14:26:47;16.00;;;12.50;;
56239;SDS011;42154;51.992;5.896;2022-10-20T14:29:14;18.58;;;12.88;;
56239;SDS011;42154;51.992;5.896;2022-10-20T14:31:41;17.23;;;13.27;;
56239;SDS011;42154;51.992;5.896;2022-10-20T14:34:22;18.20;;;12.43;;
56239;SDS011;42154;51.992;5.896;2022-10-20T14:36:52;17.10;;;13.48;;
56239;SDS011;42154;51.992;5.896;2022-10-20T14:39:30;17.08;;;11.82;;
56239;SDS011;42154;51.992;5.896;2022-10-20T14:42:05;13.98;;;11.20;;
56239;SDS011;42154;51.992;5.896;2022-10-20T14:44:46;16.20;;;12.43;;
56239;SDS011;42154;51.992;5.896;2022-10-20T14:47:14;18.00;;;14.50;;
56239;SDS011;42154;51.992;5.896;2022-10-20T14:49:42;20.95;;;14.00;;
56239;SDS011;42154;51.992;5.896;2022-10-20T14:54:42;19.40;;;13.70;;
56239;SDS011;42154;51.992;5.896;2022-10-20T14:59:53;17.55;;;13.30;;
56239;SDS011;42154;51.992;5.896;2022-10-20T15:02:34;23.75;;;17.27;;
56239;SDS011;42154;51.992;5.896;2022-10-20T15:05:19;20.23;;;15.27;;
56239;SDS011;42154;51.992;5.896;2022-10-20T15:07:57;18.73;;;13.88;;
56239;SDS011;42154;51.992;5.896;2022-10-20T15:10:30;19.92;;;14.77;;
56239;SDS011;42154;51.992;5.896;2022-10-20T15:12:56;21.08;;;15.75;;
56239;SDS011;42154;51.992;5.896;2022-10-20T15:15:26;21.80;;;14.60;;
56239;SDS011;42154;51.992;5.896;2022-10-20T15:22:53;21.23;;;14.85;;
56239;SDS011;42154;51.992;5.896;2022-10-20T15:25:35;21.30;;;14.15;;
56239;SDS011;42154;51.992;5.896;2022-10-20T15:30:53;19.02;;;14.32;;
56239;SDS011;42154;51.992;5.896;2022-10-20T15:33:19;16.95;;;13.13;;
56239;SDS011;42154;51.992;5.896;2022-10-20T15:35:45;17.77;;;14.75;;
56239;SDS011;42154;51.992;5.896;2022-10-20T15:38:12;21.17;;;15.95;;
56239;SDS011;42154;51.992;5.896;2022-10-20T15:40:39;23.52;;;16.90;;
56239;SDS011;42154;51.992;5.896;2022-10-20T15:43:08;19.75;;;15.38;;
56239;SDS011;42154;51.992;5.896;2022-10-20T15:45:42;22.20;;;16.17;;
56239;SDS011;42154;51.992;5.896;2022-10-20T15:48:20;20.48;;;16.20;;
56239;SDS011;42154;51.992;5.896;2022-10-20T15:50:48;18.90;;;15.05;;
56239;SDS011;42154;51.992;5.896;2022-10-20T15:53:13;18.10;;;13.75;;
56239;SDS011;42154;51.992;5.896;2022-10-20T15:55:41;18.52;;;15.77;;
56239;SDS011;42154;51.992;5.896;2022-10-20T15:58:07;18.42;;;15.85;;
56239;SDS011;42154;51.992;5.896;2022-10-20T16:00:33;22.27;;;17.02;;
56239;SDS011;42154;51.992;5.896;2022-10-20T16:02:59;24.00;;;17.75;;
56239;SDS011;42154;51.992;5.896;2022-10-20T16:05:25;24.63;;;18.00;;
56239;SDS011;42154;51.992;5.896;2022-10-20T16:07:52;23.50;;;16.08;;
56239;SDS011;42154;51.992;5.896;2022-10-20T16:10:19;22.33;;;15.60;;
56239;SDS011;42154;51.992;5.896;2022-10-20T16:12:46;18.17;;;14.65;;
56239;SDS011;42154;51.992;5.896;2022-10-20T16:15:12;22.13;;;15.32;;
56239;SDS011;42154;51.992;5.896;2022-10-20T16:17:38;18.58;;;12.73;;
56239;SDS011;42154;51.992;5.896;2022-10-20T16:20:04;18.40;;;13.32;;
56239;SDS011;42154;51.992;5.896;2022-10-20T16:22:32;20.80;;;16.15;;
56239;SDS011;42154;51.992;5.896;2022-10-20T16:24:58;19.27;;;13.80;;
56239;SDS011;42154;51.992;5.896;2022-10-20T16:27:29;20.95;;;16.70;;
56239;SDS011;42154;51.992;5.896;2022-10-20T16:29:56;25.85;;;16.58;;
56239;SDS011;42154;51.992;5.896;2022-10-20T16:32:23;22.30;;;14.43;;
56239;SDS011;42154;51.992;5.896;2022-10-20T16:34:49;19.88;;;14.43;;
56239;SDS011;42154;51.992;5.896;2022-10-20T16:37:15;22.38;;;15.88;;
56239;SDS011;42154;51.992;5.896;2022-10-20T16:39:41;18.40;;;15.60;;
56239;SDS011;42154;51.992;5.896;2022-10-20T16:42:07;23.77;;;17.65;;
56239;SDS011;42154;51.992;5.896;2022-10-20T16:44:33;21.48;;;16.70;;
56239;SDS011;42154;51.992;5.896;2022-10-20T16:46:58;18.98;;;14.00;;
56239;SDS011;42154;51.992;5.896;2022-10-20T16:49:24;20.73;;;15.13;;
56239;SDS011;42154;51.992;5.896;2022-10-20T16:51:50;18.02;;;14.88;;
56239;SDS011;42154;51.992;5.896;2022-10-20T16:54:16;22.98;;;16.63;;
56239;SDS011;42154;51.992;5.896;2022-10-20T16:56:42;23.25;;;15.10;;
56239;SDS011;42154;51.992;5.896;2022-10-20T16:59:09;20.73;;;16.15;;
56239;SDS011;42154;51.992;5.896;2022-10-20T17:01:35;19.98;;;13.40;;
56239;SDS011;42154;51.992;5.896;2022-10-20T17:04:01;18.13;;;14.43;;
56239;SDS011;42154;51.992;5.896;2022-10-20T17:06:27;21.42;;;17.02;;
56239;SDS011;42154;51.992;5.896;2022-10-20T17:08:54;18.42;;;14.40;;
56239;SDS011;42154;51.992;5.896;2022-10-20T17:11:23;21.63;;;14.48;;
56239;SDS011;42154;51.992;5.896;2022-10-20T17:13:54;21.30;;;15.88;;
56239;SDS011;42154;51.992;5.896;2022-10-20T17:16:21;21.27;;;15.38;;
56239;SDS011;42154;51.992;5.896;2022-10-20T17:18:50;19.15;;;15.45;;
56239;SDS011;42154;51.992;5.896;2022-10-20T17:21:20;17.83;;;13.75;;
56239;SDS011;42154;51.992;5.896;2022-10-20T17:23:45;19.80;;;12.98;;
56239;SDS011;42154;51.992;5.896;2022-10-20T17:26:12;23.42;;;17.02;;
56239;SDS011;42154;51.992;5.896;2022-10-20T17:28:40;18.65;;;15.20;;
56239;SDS011;42154;51.992;5.896;2022-10-20T17:31:07;24.23;;;15.55;;
56239;SDS011;42154;51.992;5.896;2022-10-20T17:33:35;17.40;;;13.60;;
56239;SDS011;42154;51.992;5.896;2022-10-20T17:36:01;19.42;;;14.85;;
56239;SDS011;42154;51.992;5.896;2022-10-20T17:38:27;21.52;;;15.27;;
56239;SDS011;42154;51.992;5.896;2022-10-20T17:40:54;17.83;;;14.45;;
56239;SDS011;42154;51.992;5.896;2022-10-20T17:43:20;16.67;;;13.88;;
56239;SDS011;42154;51.992;5.896;2022-10-20T17:45:56;21.50;;;16.88;;
56239;SDS011;42154;51.992;5.896;2022-10-20T17:48:23;18.33;;;14.55;;
56239;SDS011;42154;51.992;5.896;2022-10-20T17:53:42;19.95;;;16.02;;
56239;SDS011;42154;51.992;5.896;2022-10-20T17:56:11;23.02;;;16.45;;
56239;SDS011;42154;51.992;5.896;2022-10-20T17:58:39;18.20;;;14.07;;
56239;SDS011;42154;51.992;5.896;2022-10-20T18:01:19;24.50;;;18.48;;
56239;SDS011;42154;51.992;5.896;2022-10-20T18:03:46;27.00;;;21.20;;
56239;SDS011;42154;51.992;5.896;2022-10-20T18:06:17;26.42;;;20.92;;
56239;SDS011;42154;51.992;5.896;2022-10-20T18:08:44;27.98;;;21.33;;
56239;SDS011;42154;51.992;5.896;2022-10-20T18:11:15;24.25;;;19.20;;
56239;SDS011;42154;51.992;5.896;2022-10-20T18:13:43;28.05;;;22.13;;
56239;SDS011;42154;51.992;5.896;2022-10-20T18:16:11;25.67;;;19.65;;
56239;SDS011;42154;51.992;5.896;2022-10-20T18:18:38;22.15;;;17.60;;
56239;SDS011;42154;51.992;5.896;2022-10-20T18:21:05;24.10;;;19.98;;
56239;SDS011;42154;51.992;5.896;2022-10-20T18:23:32;21.65;;;17.05;;